Terminal Aerodrome Forecast
Issued by NWS Wilmington, OH

Current Version | Previous Version | Text Only | Print | Product List | Glossary Off
Versions: 1 2 3 4 5 6 7 8 9 10 11 12 13 14 15 16 17 18 19 20 21 22 23

024
FTUS41 KILN 280549
TAFDAY
TAF
KDAY 280549Z 2806/2906 VRB04KT P6SM BKN120
     FM281100 VRB03KT P6SM VCSH BKN040 BKN150
      TEMPO 2812/2816 5SM -SHRA BR OVC035
     FM281600 20005KT P6SM VCTS BKN040CB BKN150
     FM290000 23005KT P6SM BKN090=

USA.gov is the U.S. government's official web portal to all federal, state and local government web resources and services.